Time;durP1;ratioP1;P1;durP2;ratioP2;P2;SDS_P1;SDS_P2;PMS_P1;PMS_P2;Temp;Humidity;BMP_temperature;BMP_pressure;BME280_temperature;BME280_humidity;BME280_pressure;Samples;Min_cycle;Max_cycle;Signal;HPM_P1;HPM_P2
2023/11/24 00:00:17;;;;;;;27.20;4.13;;;6.40;99.90;;;;;;4986101;28;20423;-52
2023/11/24 00:02:43;;;;;;;25.10;3.97;;;6.30;99.90;;;;;;4985926;28;20084;-55
2023/11/24 00:05:09;;;;;;;24.45;3.88;;;6.40;99.90;;;;;;4986430;28;20015;-53
2023/11/24 00:07:35;;;;;;;28.45;4.00;;;6.30;99.90;;;;;;4985815;28;20710;-53
2023/11/24 00:10:02;;;;;;;22.33;3.35;;;6.20;99.90;;;;;;4985134;28;20050;-52
2023/11/24 00:12:28;;;;;;;29.60;3.80;;;6.20;99.90;;;;;;4986320;28;20014;-52
2023/11/24 00:14:54;;;;;;;25.83;3.78;;;6.20;99.90;;;;;;4986619;28;20019;-52
2023/11/24 00:17:21;;;;;;;17.02;3.58;;;6.30;99.90;;;;;;4985919;28;20037;-52
2023/11/24 00:19:47;;;;;;;25.42;4.72;;;6.30;99.90;;;;;;4986277;28;20030;-52
2023/11/24 00:22:13;;;;;;;33.15;5.57;;;6.30;99.90;;;;;;4986294;28;20058;-52
2023/11/24 00:24:39;;;;;;;19.33;3.05;;;6.30;99.90;;;;;;4987401;28;20060;-52
2023/11/24 00:27:05;;;;;;;27.65;4.38;;;6.30;99.90;;;;;;5021438;28;20404;-52
2023/11/24 00:29:31;;;;;;;28.95;4.28;;;6.20;99.90;;;;;;4989528;28;20023;-52
2023/11/24 00:31:58;;;;;;;18.13;3.15;;;6.20;99.90;;;;;;4989317;28;20030;-52
2023/11/24 00:34:23;;;;;;;27.30;4.88;;;6.20;99.90;;;;;;4988225;28;20050;-52
2023/11/24 00:36:49;;;;;;;24.35;4.22;;;6.20;99.90;;;;;;4989074;28;20100;-54
2023/11/24 00:39:15;;;;;;;33.22;4.43;;;6.20;99.90;;;;;;4989004;28;20038;-52
2023/11/24 00:41:40;;;;;;;23.20;4.63;;;6.20;99.90;;;;;;4989426;28;20495;-52
2023/11/24 00:44:06;;;;;;;36.83;7.63;;;6.20;99.90;;;;;;4989111;28;20074;-53
2023/11/24 00:46:31;;;;;;;39.22;4.88;;;6.10;99.90;;;;;;4988879;28;20102;-54
2023/11/24 00:48:57;;;;;;;39.17;5.45;;;6.10;99.90;;;;;;4988852;28;20045;-53
2023/11/24 00:51:24;;;;;;;31.65;4.07;;;6.00;99.90;;;;;;4989193;28;20030;-53
2023/11/24 00:53:51;;;;;;;33.95;4.97;;;6.00;99.90;;;;;;4989258;28;20254;-53
2023/11/24 00:56:16;;;;;;;28.80;4.82;;;6.00;99.90;;;;;;4989042;28;20062;-53
2023/11/24 00:58:43;;;;;;;14.93;3.25;;;5.90;99.90;;;;;;4988866;28;20057;-55
2023/11/24 01:01:09;;;;;;;19.42;4.28;;;5.90;99.90;;;;;;4988791;28;20391;-53
2023/11/24 01:03:35;;;;;;;30.98;5.25;;;5.90;99.90;;;;;;4988758;28;20030;-52
2023/11/24 01:06:00;;;;;;;30.27;3.92;;;5.90;99.90;;;;;;4988462;28;20029;-53
2023/11/24 01:08:26;;;;;;;28.73;3.75;;;5.80;99.90;;;;;;4988532;28;20735;-53
2023/11/24 01:10:56;;;;;;;29.50;4.38;;;5.80;99.90;;;;;;4988958;28;20311;-53
2023/11/24 01:13:22;;;;;;;32.03;4.70;;;5.80;99.90;;;;;;4989006;28;20053;-53
2023/11/24 01:15:47;;;;;;;32.35;4.13;;;5.80;99.90;;;;;;4988779;28;20085;-53
2023/11/24 01:18:13;;;;;;;24.70;4.95;;;5.80;99.90;;;;;;4988554;28;20023;-53
2023/11/24 01:20:38;;;;;;;21.10;3.70;;;5.90;99.90;;;;;;4987714;28;20511;-53
2023/11/24 01:23:04;;;;;;;31.92;4.00;;;5.90;99.90;;;;;;4988418;28;20539;-52
2023/11/24 01:25:30;;;;;;;21.30;4.32;;;6.00;99.90;;;;;;4988609;28;20495;-52
2023/11/24 01:27:56;;;;;;;20.38;3.85;;;6.00;99.90;;;;;;4988261;28;20178;-52
2023/11/24 01:30:22;;;;;;;19.25;4.10;;;6.00;99.90;;;;;;4988753;28;20132;-53
2023/11/24 01:32:47;;;;;;;18.35;3.85;;;6.10;99.90;;;;;;4988475;28;20069;-53
2023/11/24 01:35:13;;;;;;;18.30;3.55;;;6.10;99.90;;;;;;4988381;28;20023;-53
2023/11/24 01:37:38;;;;;;;25.98;4.70;;;6.10;99.90;;;;;;4988261;28;20034;-53
2023/11/24 01:40:05;;;;;;;16.95;3.20;;;6.20;99.90;;;;;;4988541;28;20031;-53
2023/11/24 01:42:36;;;;;;;24.05;3.65;;;6.10;99.90;;;;;;4988585;28;20362;-53
2023/11/24 01:45:01;;;;;;;19.20;4.07;;;6.20;99.90;;;;;;4988257;28;20046;-53
2023/11/24 01:47:27;;;;;;;20.10;4.07;;;6.20;99.90;;;;;;4986539;28;20264;-53
2023/11/24 01:49:52;;;;;;;18.38;3.45;;;6.20;99.90;;;;;;4988274;28;20499;-53
2023/11/24 01:52:19;;;;;;;11.77;4.63;;;6.10;99.90;;;;;;4986774;28;20218;-53
2023/11/24 01:54:47;;;;;;;23.23;3.53;;;6.10;99.90;;;;;;4988420;28;20023;-53
2023/11/24 01:57:13;;;;;;;26.10;4.25;;;6.10;99.90;;;;;;4988150;28;20035;-53
2023/11/24 01:59:39;;;;;;;14.77;2.83;;;6.10;99.90;;;;;;4988356;28;20076;-54
2023/11/24 02:02:04;;;;;;;21.33;4.07;;;6.00;99.90;;;;;;4986696;28;20023;-53
2023/11/24 02:04:30;;;;;;;17.30;3.17;;;6.00;99.90;;;;;;4988270;28;20035;-55
2023/11/24 02:06:57;;;;;;;25.42;4.20;;;6.00;99.90;;;;;;4987592;28;20034;-53
2023/11/24 02:09:23;;;;;;;25.95;4.25;;;6.10;99.90;;;;;;4982030;28;20483;-54
2023/11/24 02:11:49;;;;;;;20.88;3.97;;;6.10;99.90;;;;;;4988454;28;20022;-53
2023/11/24 02:14:15;;;;;;;23.33;3.92;;;6.20;99.90;;;;;;4985678;28;20443;-54
2023/11/24 02:16:40;;;;;;;20.13;3.42;;;6.20;99.90;;;;;;4982375;28;20075;-54
2023/11/24 02:19:06;;;;;;;22.88;4.25;;;6.20;99.90;;;;;;4987713;28;20035;-53
2023/11/24 02:21:32;;;;;;;22.02;3.58;;;6.10;99.90;;;;;;4987855;28;20102;-53
2023/11/24 02:23:57;;;;;;;17.50;4.32;;;6.10;99.90;;;;;;4987745;28;20157;-53
2023/11/24 02:26:25;;;;;;;20.80;3.45;;;6.00;99.90;;;;;;4986464;28;20478;-54
2023/11/24 02:28:50;;;;;;;21.40;4.93;;;6.00;99.90;;;;;;4987421;28;20109;-53
2023/11/24 02:31:16;;;;;;;27.35;3.65;;;6.00;99.90;;;;;;4988016;28;20109;-53
2023/11/24 02:33:42;;;;;;;22.40;4.30;;;6.00;99.90;;;;;;4987572;28;20034;-53
2023/11/24 02:36:16;;;;;;;22.45;3.92;;;6.00;99.90;;;;;;4987483;28;20026;-53
2023/11/24 02:38:46;;;;;;;21.50;3.95;;;6.00;99.90;;;;;;4987284;28;20030;-54
2023/11/24 02:41:18;;;;;;;19.25;3.75;;;6.00;99.90;;;;;;4987430;28;20022;-55
2023/11/24 02:43:47;;;;;;;26.85;3.60;;;6.00;99.90;;;;;;4987237;28;20027;-53
2023/11/24 02:46:14;;;;;;;14.90;3.10;;;6.00;99.90;;;;;;4987641;28;20034;-53
2023/11/24 02:48:42;;;;;;;24.35;3.58;;;6.10;99.90;;;;;;4981773;28;20525;-54
2023/11/24 02:51:08;;;;;;;22.45;4.43;;;6.10;99.90;;;;;;4987242;28;20028;-54
2023/11/24 02:53:37;;;;;;;24.40;4.38;;;6.10;99.90;;;;;;4986951;28;20234;-54
2023/11/24 02:56:04;;;;;;;21.05;3.50;;;6.10;99.90;;;;;;4989180;28;20476;-54
2023/11/24 02:58:31;;;;;;;18.50;3.85;;;6.10;99.90;;;;;;4970745;28;20031;-55
2023/11/24 03:00:56;;;;;;;30.48;4.40;;;6.10;99.90;;;;;;4969690;28;20080;-54
2023/11/24 03:03:23;;;;;;;24.95;3.53;;;6.10;99.90;;;;;;4970581;28;20402;-55
2023/11/24 03:05:52;;;;;;;23.45;4.82;;;6.10;99.90;;;;;;4970480;28;20019;-54
2023/11/24 03:08:19;;;;;;;21.58;3.75;;;6.20;99.90;;;;;;4970507;28;20030;-54
2023/11/24 03:10:45;;;;;;;22.77;4.25;;;6.20;99.90;;;;;;4970835;28;20412;-54
2023/11/24 03:13:11;;;;;;;18.98;4.63;;;6.20;99.90;;;;;;4972846;28;20045;-55
2023/11/24 03:15:36;;;;;;;21.48;4.18;;;6.20;99.90;;;;;;4986914;28;20034;-54
2023/11/24 03:18:02;;;;;;;15.13;3.92;;;6.10;99.90;;;;;;4986168;28;20030;-54
2023/11/24 03:20:28;;;;;;;23.05;4.20;;;6.20;99.90;;;;;;4966465;28;20551;-51
2023/11/24 03:22:55;;;;;;;26.15;4.70;;;6.10;99.90;;;;;;4969052;28;20147;-53
2023/11/24 03:25:20;;;;;;;17.25;3.15;;;6.10;99.90;;;;;;4969451;28;20011;-54
2023/11/24 03:27:46;;;;;;;19.25;4.32;;;6.10;99.90;;;;;;4973310;28;20026;-52
2023/11/24 03:30:12;;;;;;;22.08;4.25;;;6.10;99.90;;;;;;4974449;28;20400;-52
2023/11/24 03:32:37;;;;;;;15.63;3.67;;;6.10;99.90;;;;;;4972409;28;20058;-52
2023/11/24 03:35:03;;;;;;;20.55;4.00;;;6.10;99.90;;;;;;4973134;28;20061;-52
2023/11/24 03:37:29;;;;;;;28.23;4.38;;;6.10;99.90;;;;;;4972390;28;20056;-52
2023/11/24 03:39:54;;;;;;;24.50;3.85;;;6.10;99.90;;;;;;5017307;28;20017;-53
2023/11/24 03:42:20;;;;;;;20.95;4.22;;;6.10;99.90;;;;;;4970645;28;20390;-53
2023/11/24 03:44:46;;;;;;;21.70;3.47;;;6.10;99.90;;;;;;4985008;28;20368;-53
2023/11/24 03:47:11;;;;;;;20.10;3.80;;;6.10;99.90;;;;;;4986103;28;20468;-52
2023/11/24 03:49:37;;;;;;;23.98;3.45;;;6.10;99.90;;;;;;4986526;28;20428;-52
2023/11/24 03:52:04;;;;;;;19.20;4.25;;;6.10;99.90;;;;;;4986339;28;20026;-54
2023/11/24 03:54:29;;;;;;;9.35;3.10;;;6.10;99.90;;;;;;4986198;28;20031;-53
2023/11/24 03:56:55;;;;;;;33.47;4.03;;;6.10;99.90;;;;;;4984643;28;20352;-53
2023/11/24 03:59:20;;;;;;;19.85;3.72;;;6.10;99.90;;;;;;4984877;28;20027;-53
2023/11/24 04:01:46;;;;;;;23.85;4.35;;;6.10;99.90;;;;;;4986276;28;20061;-50
2023/11/24 04:04:12;;;;;;;18.80;3.88;;;6.00;99.90;;;;;;4986054;28;20037;-52
2023/11/24 04:06:37;;;;;;;24.23;5.10;;;6.00;99.90;;;;;;4986504;28;20033;-53
2023/11/24 04:09:04;;;;;;;19.35;3.33;;;5.90;99.90;;;;;;4984715;28;20023;-53
2023/11/24 04:11:30;;;;;;;20.20;4.00;;;5.90;99.90;;;;;;4986630;28;20075;-52
2023/11/24 04:13:56;;;;;;;22.00;3.22;;;5.90;99.90;;;;;;4986161;28;20034;-53
2023/11/24 04:16:23;;;;;;;15.93;3.38;;;5.90;99.90;;;;;;4986039;28;20039;-52
2023/11/24 04:18:49;;;;;;;24.17;4.93;;;5.80;99.90;;;;;;4986302;28;20490;-53
2023/11/24 04:21:16;;;;;;;40.13;5.20;;;5.90;99.90;;;;;;4985208;28;20042;-53
2023/11/24 04:23:41;;;;;;;25.48;3.45;;;5.90;99.90;;;;;;4986099;28;20034;-52
2023/11/24 04:26:07;;;;;;;20.92;3.70;;;5.90;99.90;;;;;;4985798;28;20550;-52
2023/11/24 04:28:32;;;;;;;25.00;4.10;;;5.90;99.90;;;;;;4985772;28;20023;-52
2023/11/24 04:30:58;;;;;;;20.02;4.95;;;5.90;99.90;;;;;;4988086;28;20049;-52
2023/11/24 04:33:24;;;;;;;25.27;5.35;;;5.90;99.90;;;;;;5017377;28;20022;-54
2023/11/24 04:35:50;;;;;;;26.25;4.72;;;5.90;99.90;;;;;;4985655;28;20060;-52
2023/11/24 04:38:16;;;;;;;24.33;4.15;;;5.90;99.90;;;;;;4985378;28;20033;-52
2023/11/24 04:40:42;;;;;;;22.08;3.70;;;5.90;99.90;;;;;;4985888;28;20026;-52
2023/11/24 04:43:08;;;;;;;20.45;3.25;;;5.80;99.90;;;;;;4985897;28;20105;-52
2023/11/24 04:45:35;;;;;;;23.35;5.68;;;5.80;99.90;;;;;;4986031;28;20111;-53
2023/11/24 04:48:01;;;;;;;23.35;4.50;;;5.80;99.90;;;;;;4984297;28;20514;-52
2023/11/24 04:50:27;;;;;;;25.90;3.67;;;5.80;99.90;;;;;;4984359;28;20399;-53
2023/11/24 04:52:52;;;;;;;18.10;3.70;;;5.80;99.90;;;;;;4985777;28;20030;-53
2023/11/24 04:55:18;;;;;;;23.35;3.42;;;5.80;99.90;;;;;;4985870;28;20475;-53
2023/11/24 04:57:49;;;;;;;23.35;2.80;;;5.80;99.90;;;;;;4985713;28;20039;-53
2023/11/24 05:00:16;;;;;;;17.63;3.38;;;5.70;99.90;;;;;;4985945;28;21035;-53
2023/11/24 05:02:42;;;;;;;20.85;3.17;;;5.70;99.90;;;;;;4985987;28;20482;-53
2023/11/24 05:05:08;;;;;;;16.90;3.03;;;5.70;99.90;;;;;;4985727;28;20089;-53
2023/11/24 05:07:34;;;;;;;16.40;2.90;;;5.70;99.90;;;;;;4985172;28;20031;-53
2023/11/24 05:10:00;;;;;;;18.35;3.13;;;5.70;99.90;;;;;;4984320;28;20472;-52
2023/11/24 05:12:25;;;;;;;16.02;3.03;;;5.70;99.90;;;;;;4989256;28;20030;-52
2023/11/24 05:14:51;;;;;;;13.35;2.47;;;5.80;99.90;;;;;;4989126;28;20023;-52
2023/11/24 05:17:17;;;;;;;18.65;3.47;;;5.80;99.90;;;;;;4986767;28;20070;-52
2023/11/24 05:19:43;;;;;;;13.20;2.30;;;5.80;99.90;;;;;;4988583;28;20395;-52
2023/11/24 05:22:08;;;;;;;7.43;2.30;;;5.80;99.90;;;;;;4988931;28;20026;-53
2023/11/24 05:24:34;;;;;;;11.27;1.58;;;5.70;99.90;;;;;;4988890;28;20038;-53
2023/11/24 05:27:00;;;;;;;13.65;2.20;;;5.80;99.90;;;;;;4987025;28;20027;-54
2023/11/24 05:29:25;;;;;;;10.52;2.10;;;5.70;99.90;;;;;;4987578;28;20077;-53
2023/11/24 05:31:51;;;;;;;10.25;2.00;;;5.80;99.90;;;;;;4988686;28;20046;-53
2023/11/24 05:34:17;;;;;;;15.43;2.17;;;5.70;99.90;;;;;;4987366;28;20026;-53
2023/11/24 05:36:44;;;;;;;9.93;1.80;;;5.70;99.90;;;;;;4988271;28;20026;-53
2023/11/24 05:39:11;;;;;;;3.80;1.45;;;5.70;99.90;;;;;;4988009;28;20023;-53
2023/11/24 05:41:37;;;;;;;5.55;1.48;;;5.70;99.90;;;;;;4988208;28;20680;-53
2023/11/24 05:44:03;;;;;;;10.55;1.65;;;5.70;99.90;;;;;;4988055;28;20534;-53
2023/11/24 05:46:29;;;;;;;12.35;2.63;;;5.70;99.90;;;;;;4983635;28;20029;-53
2023/11/24 05:48:54;;;;;;;8.43;1.58;;;5.70;99.90;;;;;;4984802;28;20026;-54
2023/11/24 05:51:20;;;;;;;9.30;1.83;;;5.70;99.90;;;;;;4988400;28;20130;-52
2023/11/24 05:53:45;;;;;;;13.80;1.90;;;5.70;99.90;;;;;;4986828;28;20099;-52
2023/11/24 05:56:11;;;;;;;11.88;2.20;;;5.70;99.90;;;;;;4987924;28;20034;-52
2023/11/24 05:58:37;;;;;;;7.43;2.15;;;5.70;99.90;;;;;;4986553;28;20031;-52
2023/11/24 06:01:03;;;;;;;8.93;1.70;;;5.60;99.90;;;;;;4988218;28;20028;-54
2023/11/24 06:03:28;;;;;;;14.18;1.67;;;5.60;99.90;;;;;;4988111;28;20133;-54
2023/11/24 06:05:55;;;;;;;18.17;3.22;;;5.50;99.90;;;;;;4988005;28;20547;-53
2023/11/24 06:08:21;;;;;;;8.30;2.08;;;5.40;99.90;;;;;;4987627;28;20401;-53
2023/11/24 06:10:50;;;;;;;10.52;2.65;;;5.40;99.90;;;;;;4988041;28;20118;-53
2023/11/24 06:13:15;;;;;;;6.80;1.70;;;5.40;99.90;;;;;;4988206;28;20491;-53
2023/11/24 06:15:41;;;;;;;5.75;1.92;;;5.40;99.90;;;;;;4982514;28;20083;-53
2023/11/24 06:18:07;;;;;;;11.68;1.85;;;5.40;99.90;;;;;;4986159;28;20027;-53
2023/11/24 06:20:33;;;;;;;12.32;2.17;;;5.40;99.90;;;;;;4983600;28;20075;-53
2023/11/24 06:22:58;;;;;;;13.07;2.65;;;5.50;99.90;;;;;;4977648;28;20035;-53
2023/11/24 06:25:24;;;;;;;10.57;1.80;;;5.50;99.90;;;;;;4983589;28;20049;-54
2023/11/24 06:27:50;;;;;;;8.60;1.52;;;5.50;99.90;;;;;;4976752;28;20031;-53
2023/11/24 06:30:15;;;;;;;11.13;2.25;;;5.40;99.90;;;;;;4985069;28;20035;-53
2023/11/24 06:32:41;;;;;;;8.07;1.90;;;5.50;99.90;;;;;;4977354;28;20230;-52
2023/11/24 06:35:07;;;;;;;24.45;3.38;;;5.50;99.90;;;;;;4983765;28;20035;-52
2023/11/24 06:37:33;;;;;;;15.82;2.65;;;5.50;99.90;;;;;;4976914;28;20099;-52
2023/11/24 06:39:59;;;;;;;14.38;2.47;;;5.50;99.90;;;;;;4984592;28;20093;-52
2023/11/24 06:42:25;;;;;;;8.80;2.50;;;5.40;99.90;;;;;;4977271;28;20429;-53
2023/11/24 06:44:50;;;;;;;19.48;2.45;;;5.40;99.90;;;;;;4983961;28;20034;-54
2023/11/24 06:47:16;;;;;;;11.02;2.28;;;5.40;99.90;;;;;;4970018;28;20452;-56
2023/11/24 06:49:42;;;;;;;15.57;2.08;;;5.40;99.90;;;;;;4981019;28;20468;-54
2023/11/24 06:52:08;;;;;;;11.13;2.47;;;5.40;99.90;;;;;;4980383;28;20302;-55
2023/11/24 06:54:34;;;;;;;11.98;2.15;;;5.40;99.90;;;;;;4981995;28;20031;-56
2023/11/24 06:56:59;;;;;;;13.02;2.03;;;5.40;99.90;;;;;;4973622;28;20029;-56
2023/11/24 06:59:25;;;;;;;8.10;1.85;;;5.40;99.90;;;;;;4969056;28;20029;-55
2023/11/24 07:01:51;;;;;;;14.38;2.45;;;5.30;99.90;;;;;;4983219;28;20037;-56
2023/11/24 07:04:18;;;;;;;12.20;1.90;;;5.20;99.90;;;;;;4986973;28;20053;-57
2023/11/24 07:06:44;;;;;;;8.90;1.48;;;5.20;99.90;;;;;;4983526;28;20468;-55
2023/11/24 07:09:10;;;;;;;9.05;1.85;;;5.10;99.90;;;;;;4969096;28;20385;-56
2023/11/24 07:11:36;;;;;;;4.40;1.65;;;5.10;99.90;;;;;;4969188;28;20152;-56
2023/11/24 07:14:01;;;;;;;10.82;2.33;;;5.10;99.90;;;;;;4969964;28;20652;-55
2023/11/24 07:16:27;;;;;;;13.70;1.83;;;5.00;99.90;;;;;;4969925;28;20607;-55
2023/11/24 07:18:53;;;;;;;21.88;2.05;;;5.00;99.90;;;;;;4966768;28;20031;-56
2023/11/24 07:21:18;;;;;;;12.40;2.00;;;5.10;99.90;;;;;;4968947;28;20029;-56
2023/11/24 07:23:44;;;;;;;9.63;1.80;;;5.00;99.90;;;;;;4969296;28;20026;-55
2023/11/24 07:26:16;;;;;;;5.82;1.95;;;5.10;99.90;;;;;;4968773;28;20050;-56
2023/11/24 07:28:44;;;;;;;16.35;2.10;;;5.00;99.90;;;;;;4968700;28;20072;-56
2023/11/24 07:31:17;;;;;;;10.07;1.80;;;5.00;99.90;;;;;;4968687;28;20021;-56
2023/11/24 07:33:49;;;;;;;7.70;1.90;;;5.00;99.90;;;;;;4968383;28;20030;-55
2023/11/24 07:36:15;;;;;;;7.38;2.30;;;5.00;99.90;;;;;;4969272;28;20114;-55
2023/11/24 07:38:42;;;;;;;11.30;2.50;;;5.00;99.90;;;;;;4971165;28;20015;-56
2023/11/24 07:41:09;;;;;;;9.35;1.83;;;4.90;99.90;;;;;;4970053;28;20027;-56
2023/11/24 07:43:35;;;;;;;14.77;1.98;;;4.90;99.90;;;;;;4968622;28;20023;-57
2023/11/24 07:46:01;;;;;;;13.98;2.78;;;4.90;99.90;;;;;;4967953;28;20053;-56
2023/11/24 07:48:27;;;;;;;9.85;2.00;;;4.80;99.90;;;;;;4979657;28;20049;-56
2023/11/24 07:50:53;;;;;;;7.65;1.83;;;4.90;99.90;;;;;;4978382;28;20058;-56
2023/11/24 07:53:18;;;;;;;8.75;1.58;;;4.80;99.90;;;;;;4968476;28;20076;-57
2023/11/24 07:55:44;;;;;;;3.40;1.00;;;4.70;99.90;;;;;;4967409;28;20027;-56
2023/11/24 07:58:11;;;;;;;5.35;1.30;;;4.60;99.90;;;;;;4968313;28;20622;-56
2023/11/24 08:00:37;;;;;;;19.17;9.38;;;4.60;99.90;;;;;;4967763;28;20394;-55
2023/11/24 08:03:03;;;;;;;4.05;0.90;;;4.50;99.90;;;;;;4967963;28;20076;-55
2023/11/24 08:05:29;;;;;;;3.17;0.73;;;4.30;99.90;;;;;;4968161;28;20157;-55
2023/11/24 08:07:55;;;;;;;4.97;1.00;;;4.20;99.90;;;;;;4967323;28;20026;-56
2023/11/24 08:10:21;;;;;;;3.88;0.60;;;4.10;99.90;;;;;;4968420;28;20042;-56
2023/11/24 08:12:46;;;;;;;4.43;0.70;;;4.10;99.90;;;;;;4967962;28;20053;-56
2023/11/24 08:15:12;;;;;;;6.97;0.95;;;4.00;99.90;;;;;;4968249;28;20031;-56
2023/11/24 08:17:39;;;;;;;9.23;0.73;;;4.00;99.90;;;;;;4970005;28;20051;-55
2023/11/24 08:20:10;;;;;;;2.90;1.13;;;3.90;99.90;;;;;;4973355;28;20015;-56
2023/11/24 08:22:39;;;;;;;7.45;1.40;;;3.80;99.90;;;;;;4966736;28;20141;-55
2023/11/24 08:25:06;;;;;;;2.53;1.30;;;3.80;99.90;;;;;;4971432;28;20023;-55
2023/11/24 08:27:32;;;;;;;12.70;2.55;;;3.90;99.90;;;;;;4970445;28;20099;-56
2023/11/24 08:29:58;;;;;;;8.40;1.98;;;3.90;99.90;;;;;;4981414;28;20034;-56
2023/11/24 08:32:25;;;;;;;10.23;1.98;;;4.00;99.90;;;;;;5012715;28;20080;-56
2023/11/24 08:34:50;;;;;;;11.68;2.78;;;4.10;99.90;;;;;;4985827;28;20023;-56
2023/11/24 08:37:16;;;;;;;13.35;2.20;;;4.20;99.90;;;;;;4982935;28;20407;-56
2023/11/24 08:39:41;;;;;;;14.63;2.45;;;4.40;99.90;;;;;;4969482;28;20031;-55
2023/11/24 08:42:07;;;;;;;9.45;2.17;;;4.50;99.90;;;;;;4976974;28;20027;-55
2023/11/24 08:44:33;;;;;;;13.82;2.40;;;4.60;99.90;;;;;;4985955;28;20110;-55
2023/11/24 08:46:58;;;;;;;19.13;2.80;;;4.60;99.90;;;;;;4975368;28;20038;-56
2023/11/24 08:49:24;;;;;;;14.35;2.35;;;4.70;99.90;;;;;;4973319;28;20100;-56
2023/11/24 08:51:49;;;;;;;9.35;2.38;;;4.90;99.90;;;;;;4971279;28;20434;-55
2023/11/24 08:54:15;;;;;;;7.30;1.40;;;5.00;99.90;;;;;;4973561;28;20488;-56
2023/11/24 08:56:41;;;;;;;7.72;1.90;;;4.90;99.90;;;;;;4984036;28;20033;-56
2023/11/24 08:59:10;;;;;;;5.38;1.77;;;4.90;99.90;;;;;;4973777;28;20022;-55
2023/11/24 09:01:36;;;;;;;17.53;2.40;;;4.90;99.90;;;;;;4972416;28;20104;-55
2023/11/24 09:04:02;;;;;;;13.60;1.85;;;4.90;99.90;;;;;;4982451;28;20448;-54
2023/11/24 09:06:31;;;;;;;8.93;2.20;;;4.90;99.90;;;;;;4988943;28;20029;-54
2023/11/24 09:08:58;;;;;;;10.10;1.63;;;5.00;99.90;;;;;;4988619;28;20018;-54
2023/11/24 09:11:24;;;;;;;7.38;1.30;;;5.10;99.90;;;;;;4989256;28;20114;-54
2023/11/24 09:13:51;;;;;;;7.95;1.80;;;5.20;99.90;;;;;;4988919;28;20412;-54
2023/11/24 09:16:20;;;;;;;10.65;1.75;;;5.10;99.90;;;;;;4988787;28;20026;-54
2023/11/24 09:18:45;;;;;;;10.13;2.25;;;5.10;99.90;;;;;;4988613;28;20110;-54
2023/11/24 09:21:12;;;;;;;12.65;1.92;;;5.00;99.90;;;;;;4988703;28;20105;-54
2023/11/24 09:23:38;;;;;;;9.70;1.95;;;4.90;99.90;;;;;;4988913;28;20030;-53
2023/11/24 09:26:07;;;;;;;8.77;1.45;;;4.80;99.90;;;;;;4988052;28;20071;-54
2023/11/24 09:28:33;;;;;;;8.50;1.83;;;4.70;99.90;;;;;;4988380;28;20054;-54
2023/11/24 09:31:00;;;;;;;12.73;1.70;;;4.60;99.90;;;;;;4988582;28;20042;-53
2023/11/24 09:33:25;;;;;;;6.75;1.15;;;4.50;99.90;;;;;;4988647;28;20030;-54
2023/11/24 09:35:51;;;;;;;4.50;0.80;;;4.40;99.90;;;;;;4988428;28;20037;-55
2023/11/24 09:38:16;;;;;;;7.18;1.40;;;4.20;99.90;;;;;;4986957;28;20030;-55
2023/11/24 09:40:44;;;;;;;3.90;1.10;;;4.10;99.90;;;;;;4988687;28;20019;-54
2023/11/24 09:43:11;;;;;;;3.30;0.93;;;4.00;99.90;;;;;;4988246;28;20510;-55
2023/11/24 09:45:38;;;;;;;2.03;0.90;;;4.00;99.90;;;;;;4988414;28;20044;-55
2023/11/24 09:48:05;;;;;;;3.13;0.90;;;4.00;99.90;;;;;;4987974;28;20019;-55
2023/11/24 09:50:33;;;;;;;4.90;1.40;;;4.20;99.90;;;;;;4987111;28;20019;-55
2023/11/24 09:52:59;;;;;;;3.55;0.73;;;4.40;99.90;;;;;;4988665;28;20163;-55
2023/11/24 09:55:26;;;;;;;2.72;0.57;;;4.40;99.90;;;;;;4988559;28;20175;-54
2023/11/24 09:57:52;;;;;;;4.47;1.00;;;4.40;99.90;;;;;;4987727;28;20034;-55
2023/11/24 10:00:21;;;;;;;1.42;0.60;;;4.40;99.90;;;;;;4988179;28;20026;-55
2023/11/24 10:02:47;;;;;;;2.42;0.77;;;4.40;99.90;;;;;;4987962;28;20038;-54
2023/11/24 10:05:22;;;;;;;1.85;0.80;;;4.40;99.90;;;;;;4988165;28;20101;-54
2023/11/24 10:07:50;;;;;;;2.17;0.70;;;4.40;99.90;;;;;;4986537;28;20023;-54
2023/11/24 10:10:22;;;;;;;1.05;0.60;;;4.40;99.90;;;;;;4988020;28;20030;-55
2023/11/24 10:12:52;;;;;;;2.45;0.73;;;4.50;99.90;;;;;;4988334;28;20018;-53
2023/11/24 10:15:20;;;;;;;4.55;1.17;;;4.90;99.90;;;;;;4987785;28;20027;-54
2023/11/24 10:17:48;;;;;;;3.88;0.80;;;6.00;99.90;;;;;;4987710;28;20018;-54
2023/11/24 10:20:18;;;;;;;1.85;0.68;;;7.20;99.90;;;;;;4988208;28;20034;-55
2023/11/24 10:22:49;;;;;;;5.20;0.98;;;7.50;99.90;;;;;;4988255;28;20022;-55
2023/11/24 10:25:22;;;;;;;4.15;1.10;;;7.80;99.90;;;;;;4987979;28;20042;-55
2023/11/24 10:27:48;;;;;;;3.67;0.88;;;7.60;99.90;;;;;;4987550;28;20046;-54
2023/11/24 10:30:17;;;;;;;2.22;1.10;;;7.40;99.90;;;;;;4987945;28;20022;-54
2023/11/24 10:32:45;;;;;;;5.43;1.40;;;7.10;99.90;;;;;;4987749;28;20022;-54
2023/11/24 10:35:13;;;;;;;2.45;0.95;;;6.70;99.90;;;;;;4987931;28;20026;-54
2023/11/24 10:37:42;;;;;;;5.93;1.38;;;6.40;99.90;;;;;;5020703;28;20029;-54
2023/11/24 10:40:13;;;;;;;5.90;1.00;;;6.00;99.90;;;;;;4987709;28;20113;-54
2023/11/24 10:42:47;;;;;;;2.58;1.05;;;5.90;99.90;;;;;;5002225;28;20033;-54
2023/11/24 10:45:18;;;;;;;2.97;1.08;;;5.80;99.90;;;;;;4992081;28;20472;-54
2023/11/24 10:48:14;;;;;;;5.28;0.90;;;5.60;99.90;;;;;;4995032;28;20121;-54
2023/11/24 10:50:56;;;;;;;6.00;1.20;;;5.70;99.90;;;;;;4987234;28;20072;-54
2023/11/24 10:53:38;;;;;;;3.65;1.10;;;6.40;99.90;;;;;;4971578;28;20034;-54
2023/11/24 10:56:04;;;;;;;2.50;1.17;;;7.10;99.90;;;;;;4991278;28;20030;-54
2023/11/24 10:58:33;;;;;;;3.15;1.20;;;7.50;99.90;;;;;;4986886;28;20037;-55
2023/11/24 11:00:59;;;;;;;3.15;1.15;;;7.30;99.90;;;;;;4987057;28;20050;-55
2023/11/24 11:03:27;;;;;;;3.90;1.10;;;7.40;99.90;;;;;;4987064;28;20022;-55
2023/11/24 11:06:31;;;;;;;3.30;0.90;;;7.90;99.90;;;;;;4980979;28;20085;-54
2023/11/24 11:09:19;;;;;;;1.90;0.90;;;8.60;99.90;;;;;;4979950;28;20115;-54
2023/11/24 11:12:33;;;;;;;2.75;1.10;;;9.10;99.90;;;;;;5022383;28;20038;-55
2023/11/24 11:14:59;;;;;;;4.97;0.90;;;9.60;99.90;;;;;;5000956;28;20038;-55
2023/11/24 11:17:26;;;;;;;2.38;0.95;;;9.60;99.90;;;;;;5008178;28;20383;-55
2023/11/24 11:20:06;;;;;;;4.43;1.08;;;9.60;99.90;;;;;;4983362;28;20026;-56
2023/11/24 11:22:39;;;;;;;3.13;1.05;;;9.60;99.90;;;;;;5009472;28;20032;-55
2023/11/24 11:25:16;;;;;;;3.92;1.05;;;9.40;99.90;;;;;;4972055;28;20080;-55
2023/11/24 11:27:43;;;;;;;4.63;1.40;;;9.60;99.90;;;;;;4976426;28;20152;-55
2023/11/24 11:30:23;;;;;;;6.63;1.58;;;9.80;99.90;;;;;;4974123;28;20091;-55
2023/11/24 11:33:24;;;;;;;2.33;1.10;;;10.50;99.90;;;;;;4970605;28;20102;-55
2023/11/24 11:36:05;;;;;;;6.25;1.33;;;11.50;99.90;;;;;;5022050;28;20033;-56
2023/11/24 11:38:35;;;;;;;;;;;11.40;99.90;;;;;;5002470;28;20035;-55
2023/11/24 11:41:01;;;;;;;5.57;1.65;;;11.10;99.90;;;;;;5020670;28;19943;-55
2023/11/24 11:43:27;;;;;;;6.47;1.63;;;10.70;99.90;;;;;;4996231;28;20582;-57
2023/11/24 11:45:57;;;;;;;5.68;1.60;;;10.00;99.90;;;;;;4967560;28;20014;-55
2023/11/24 11:48:22;;;;;;;6.28;1.45;;;9.20;99.90;;;;;;4972399;28;20076;-54
2023/11/24 11:50:59;;;;;;;5.78;1.88;;;8.60;99.90;;;;;;4978145;28;20031;-53
2023/11/24 11:53:28;;;;;;;5.45;1.48;;;8.00;99.90;;;;;;4968861;28;20062;-54
2023/11/24 11:56:07;;;;;;;8.57;1.15;;;7.50;99.90;;;;;;4967905;28;20027;-53
2023/11/24 11:58:34;;;;;;;10.45;2.63;;;7.10;99.90;;;;;;4969774;28;20030;-53
2023/11/24 12:01:05;;;;;;;11.02;1.90;;;6.70;99.90;;;;;;4983596;28;20034;-53
2023/11/24 12:03:32;;;;;;;4.65;1.50;;;6.20;99.90;;;;;;4995904;28;20069;-54
2023/11/24 12:06:04;;;;;;;3.92;1.10;;;6.00;99.90;;;;;;4986463;28;20115;-54
2023/11/24 12:08:29;;;;;;;5.20;1.50;;;5.80;99.90;;;;;;4986143;28;20084;-54
2023/11/24 12:10:55;;;;;;;8.18;1.90;;;5.60;99.90;;;;;;4984887;28;20054;-53
2023/11/24 12:13:24;;;;;;;8.27;1.70;;;5.40;99.90;;;;;;4986290;28;20091;-54
2023/11/24 12:15:50;;;;;;;10.45;2.35;;;5.40;99.90;;;;;;4984911;28;20037;-55
2023/11/24 12:18:17;;;;;;;9.45;2.00;;;5.30;99.90;;;;;;4985926;28;20023;-54
2023/11/24 12:20:49;;;;;;;12.80;1.90;;;5.20;99.90;;;;;;4982519;28;20023;-55
2023/11/24 12:23:16;;;;;;;5.60;1.67;;;5.10;99.90;;;;;;4988680;28;20027;-56
2023/11/24 12:25:45;;;;;;;8.75;1.90;;;5.00;99.90;;;;;;4989490;28;20040;-56
2023/11/24 12:28:13;;;;;;;8.35;2.03;;;5.00;99.90;;;;;;4989224;28;20015;-56
2023/11/24 12:30:43;;;;;;;7.03;1.48;;;5.00;99.90;;;;;;4989909;28;20021;-55
2023/11/24 12:33:15;;;;;;;7.38;1.58;;;4.90;99.90;;;;;;4989676;28;20030;-54
2023/11/24 12:35:55;;;;;;;3.53;1.40;;;4.90;99.90;;;;;;4984897;28;20038;-54
2023/11/24 12:38:21;;;;;;;7.25;1.33;;;4.90;99.90;;;;;;4971554;28;20038;-53
2023/11/24 12:40:49;;;;;;;4.00;2.08;;;4.90;99.90;;;;;;4978205;28;20052;-54
2023/11/24 12:43:19;;;;;;;3.45;1.23;;;4.90;99.90;;;;;;4989196;28;20427;-53
2023/11/24 12:45:48;;;;;;;5.72;1.33;;;4.80;99.90;;;;;;4989755;28;20018;-54
2023/11/24 12:48:24;;;;;;;5.93;1.35;;;4.80;99.90;;;;;;4989055;28;20034;-55
2023/11/24 12:50:55;;;;;;;7.10;1.10;;;4.70;99.90;;;;;;4985108;28;20114;-55